createdAt,value
2023-03-02T00:03:05.482Z,48.00
2023-03-02T00:07:13.588Z,48.90
2023-03-02T00:11:41.099Z,49.70
2023-03-02T00:15:49.425Z,47.10
2023-03-02T00:19:58.999Z,48.10
2023-03-02T00:24:06.870Z,45.60
2023-03-02T00:27:54.732Z,47.60
2023-03-02T00:31:50.850Z,47.50
2023-03-02T00:35:38.944Z,49.50
2023-03-02T00:39:27.217Z,49.80
2023-03-02T00:43:16.523Z,51.00
2023-03-02T00:46:55.332Z,49.00
2023-03-02T00:50:42.918Z,52.70
2023-03-02T00:54:31.070Z,44.90
2023-03-02T00:58:19.590Z,44.60
2023-03-02T01:02:07.341Z,49.10
2023-03-02T01:05:35.998Z,60.80
2023-03-02T01:08:56.667Z,65.80
2023-03-02T01:11:40.902Z,62.50
2023-03-02T01:14:28.577Z,65.10
2023-03-02T01:17:40.745Z,66.20
2023-03-02T01:21:15.330Z,59.10
2023-03-02T01:24:50.519Z,60.60
2023-03-02T01:27:48.119Z,61.00
2023-03-02T01:30:57.306Z,69.90
2023-03-02T01:34:23.084Z,72.60
2023-03-02T01:37:53.572Z,68.30
2023-03-02T01:41:10.237Z,80.50
2023-03-02T01:45:16.116Z,80.00
2023-03-02T01:48:41.497Z,72.40
2023-03-02T01:52:29.214Z,77.80
2023-03-02T01:55:57.645Z,74.60
2023-03-02T01:58:41.819Z,69.00
2023-03-02T02:01:54.301Z,65.00
2023-03-02T02:05:11.353Z,66.80
2023-03-02T02:07:56.360Z,73.00
2023-03-02T02:11:10.951Z,70.90
2023-03-02T02:14:41.725Z,67.80
2023-03-02T02:18:01.899Z,78.40
2023-03-02T02:21:42.244Z,77.60
2023-03-02T02:25:30.395Z,74.80
2023-03-02T02:28:43.222Z,73.90
2023-03-02T02:32:31.989Z,79.80
2023-03-02T02:35:39.134Z,82.10
2023-03-02T02:38:59.017Z,71.30
2023-03-02T02:42:38.204Z,73.30
2023-03-02T02:46:14.436Z,76.80
2023-03-02T02:50:01.759Z,87.80
2023-03-02T02:53:24.494Z,96.30
2023-03-02T02:56:47.139Z,90.60
2023-03-02T03:00:27.679Z,86.70
2023-03-02T03:03:33.058Z,90.20
2023-03-02T03:07:02.430Z,89.60
2023-03-02T03:10:28.767Z,82.80
2023-03-02T03:14:07.807Z,85.60
2023-03-02T03:17:15.370Z,77.60
2023-03-02T03:20:46.357Z,82.70
2023-03-02T03:24:14.190Z,78.00
2023-03-02T03:27:27.872Z,81.00
2023-03-02T03:31:05.106Z,77.60
2023-03-02T03:34:36.640Z,74.70
2023-03-02T03:37:47.781Z,79.60
2023-03-02T03:41:11.310Z,75.70
2023-03-02T03:44:02.042Z,74.20
2023-03-02T03:46:56.674Z,72.10
2023-03-02T03:50:34.173Z,66.10
2023-03-02T03:54:21.127Z,69.20
2023-03-02T03:57:30.319Z,77.40
2023-03-02T04:00:25.592Z,81.80
2023-03-02T04:03:51.170Z,82.50
2023-03-02T04:06:40.944Z,78.50
2023-03-02T04:09:30.628Z,81.60
2023-03-02T04:12:37.938Z,90.30
2023-03-02T04:15:27.744Z,85.50
2023-03-02T04:18:22.711Z,77.20
2023-03-02T04:21:47.713Z,83.30
2023-03-02T04:24:22.352Z,84.00
2023-03-02T04:27:09.856Z,89.50
2023-03-02T04:30:37.435Z,80.00
2023-03-02T04:33:35.437Z,90.60
2023-03-02T04:36:56.933Z,90.90
2023-03-02T04:39:46.561Z,100.90
2023-03-02T04:42:44.732Z,97.40
2023-03-02T04:46:08.325Z,98.60
2023-03-02T04:49:48.121Z,82.00
2023-03-02T04:53:35.851Z,62.80
2023-03-02T04:57:21.894Z,41.30
2023-03-02T05:00:55.482Z,40.30
2023-03-02T05:03:38.938Z,41.20
2023-03-02T05:06:24.987Z,38.70
2023-03-02T05:09:29.607Z,47.80
2023-03-02T05:13:18.708Z,45.00
2023-03-02T05:15:51.194Z,47.60
2023-03-02T05:19:15.063Z,37.00
2023-03-02T05:22:47.774Z,27.70
2023-03-02T05:26:23.867Z,25.60
2023-03-02T05:30:04.079Z,30.30
2023-03-02T05:33:51.499Z,36.90
2023-03-02T05:36:41.874Z,30.20
2023-03-02T05:39:58.628Z,26.10
2023-03-02T05:43:27.660Z,37.70
2023-03-02T05:46:51.143Z,47.40
2023-03-02T05:49:53.991Z,48.30
2023-03-02T05:52:54.966Z,47.80
2023-03-02T05:55:54.512Z,44.80
2023-03-02T05:59:24.543Z,52.70
2023-03-02T06:02:07.520Z,46.10
2023-03-02T06:05:37.263Z,47.40
2023-03-02T06:08:56.621Z,45.10
2023-03-02T06:12:18.675Z,45.80
2023-03-02T06:15:42.515Z,42.80
2023-03-02T06:19:04.985Z,42.60
2023-03-02T06:22:33.353Z,42.50
2023-03-02T06:26:05.521Z,41.90
2023-03-02T06:29:46.969Z,35.90
2023-03-02T06:33:18.424Z,34.10
2023-03-02T06:36:52.710Z,38.40
2023-03-02T06:41:02.060Z,37.00
2023-03-02T06:44:25.245Z,30.00
2023-03-02T06:48:13.042Z,27.80
2023-03-02T06:52:01.015Z,21.50
2023-03-02T06:55:49.618Z,32.20
2023-03-02T06:59:37.221Z,33.10
2023-03-02T07:03:18.381Z,37.50
2023-03-02T07:07:06.119Z,31.50
2023-03-02T07:10:53.790Z,23.30
2023-03-02T07:14:31.670Z,30.40
2023-03-02T07:18:20.190Z,35.80
2023-03-02T07:22:08.495Z,29.80
2023-03-02T07:25:50.294Z,32.10
2023-03-02T07:29:38.039Z,27.90
2023-03-02T07:33:25.733Z,29.00
2023-03-02T07:37:13.593Z,19.30
2023-03-02T07:41:02.834Z,27.20
2023-03-02T07:44:52.202Z,25.50
2023-03-02T07:49:17.168Z,26.70
2023-03-02T07:53:36.976Z,21.10
2023-03-02T07:57:55.826Z,23.60
2023-03-02T08:02:23.334Z,23.50
2023-03-02T08:06:51.279Z,23.60
2023-03-02T08:11:18.934Z,15.00
2023-03-02T08:15:30.397Z,21.80
2023-03-02T08:19:58.132Z,24.40
2023-03-02T08:24:09.258Z,23.00
2023-03-02T08:28:13.185Z,17.30
2023-03-02T08:32:21.582Z,15.40
2023-03-02T08:36:10.421Z,16.80
2023-03-02T08:39:58.925Z,24.50
2023-03-02T08:43:47.565Z,22.50
2023-03-02T08:47:30.018Z,25.50
2023-03-02T08:51:17.848Z,28.20
2023-03-02T08:54:56.230Z,21.60
2023-03-02T08:58:44.255Z,25.00
2023-03-02T09:02:32.173Z,26.30
2023-03-02T09:06:20.035Z,27.30
2023-03-02T09:09:58.249Z,27.30
2023-03-02T09:13:19.395Z,22.60
2023-03-02T09:17:07.201Z,23.70
2023-03-02T09:20:48.748Z,22.60
2023-03-02T09:24:36.392Z,22.00
2023-03-02T09:28:12.782Z,23.50
2023-03-02T09:32:00.646Z,24.70
2023-03-02T09:35:32.101Z,24.80
2023-03-02T09:39:19.309Z,22.30
2023-03-02T09:43:21.476Z,21.00
2023-03-02T09:47:06.906Z,21.80
2023-03-02T09:51:10.005Z,16.30
2023-03-02T09:54:43.611Z,20.70
2023-03-02T09:58:31.226Z,21.90
2023-03-02T10:02:09.578Z,23.60
2023-03-02T10:05:57.591Z,25.80
2023-03-02T10:09:45.615Z,25.60
2023-03-02T10:13:36.044Z,18.10
2023-03-02T10:17:30.951Z,18.70
2023-03-02T10:21:13.670Z,17.70
2023-03-02T10:25:04.469Z,21.10
2023-03-02T10:28:55.245Z,20.50
2023-03-02T10:32:49.552Z,24.20
2023-03-02T10:36:25.438Z,25.90
2023-03-02T10:40:13.184Z,22.30
2023-03-02T10:43:55.774Z,28.10
2023-03-02T10:47:43.424Z,23.00
2023-03-02T10:51:31.026Z,23.60
2023-03-02T10:55:18.845Z,25.60
2023-03-02T10:59:24.377Z,24.60
2023-03-02T11:03:03.540Z,25.80
2023-03-02T11:07:00.011Z,20.50
2023-03-02T11:11:01.121Z,26.60
2023-03-02T11:14:55.184Z,24.50
2023-03-02T11:18:41.325Z,28.50
2023-03-02T11:22:46.953Z,26.30
2023-03-02T11:26:18.423Z,27.90
2023-03-02T11:30:17.470Z,27.80
2023-03-02T11:34:16.703Z,20.60
2023-03-02T11:38:22.975Z,23.30
2023-03-02T11:42:28.969Z,26.30
2023-03-02T11:46:21.712Z,29.70
2023-03-02T11:50:16.241Z,33.80
2023-03-02T11:54:04.381Z,32.10
2023-03-02T11:57:54.455Z,31.40
2023-03-02T12:01:41.951Z,29.50
2023-03-02T12:05:29.916Z,26.10
2023-03-02T12:09:20.392Z,28.50
2023-03-02T12:13:17.277Z,29.80
2023-03-02T12:17:22.221Z,26.90
2023-03-02T12:21:22.183Z,20.90
2023-03-02T12:25:22.440Z,26.70
2023-03-02T12:29:12.855Z,28.50
2023-03-02T12:33:06.530Z,26.80
2023-03-02T12:37:00.009Z,12.60
2023-03-02T12:40:48.806Z,21.40
2023-03-02T12:44:55.586Z,22.20
2023-03-02T12:48:43.016Z,23.80
2023-03-02T12:52:36.895Z,25.80
2023-03-02T12:56:25.711Z,26.10
2023-03-02T13:00:18.856Z,23.20
2023-03-02T13:03:54.548Z,25.40
2023-03-02T13:07:42.658Z,26.80
2023-03-02T13:11:31.517Z,24.50
2023-03-02T13:15:20.193Z,25.30
2023-03-02T13:19:08.651Z,28.70
2023-03-02T13:22:57.337Z,26.80
2023-03-02T13:26:53.677Z,29.70
2023-03-02T13:30:48.652Z,26.50
2023-03-02T13:34:37.159Z,29.40
2023-03-02T13:38:34.746Z,30.50
2023-03-02T13:42:32.312Z,25.80
2023-03-02T13:46:32.435Z,21.10
2023-03-02T13:50:32.933Z,30.40
2023-03-02T13:53:57.440Z,27.20
2023-03-02T13:57:45.721Z,29.80
2023-03-02T14:01:35.374Z,29.90
2023-03-02T14:05:23.643Z,30.70
2023-03-02T14:09:13.236Z,26.50
2023-03-02T14:12:28.977Z,31.50
2023-03-02T14:16:17.029Z,31.00
2023-03-02T14:20:41.668Z,31.40
2023-03-02T14:23:47.529Z,30.10
2023-03-02T14:27:35.726Z,31.80
2023-03-02T14:31:23.811Z,32.70
2023-03-02T14:35:09.969Z,32.00
2023-03-02T14:38:38.489Z,32.80
2023-03-02T14:42:26.992Z,32.20
2023-03-02T14:46:04.977Z,28.70
2023-03-02T14:49:35.704Z,35.40
2023-03-02T14:53:29.721Z,33.00
2023-03-02T14:56:54.836Z,35.40
2023-03-02T15:00:43.928Z,33.70
2023-03-02T15:04:32.226Z,36.20
2023-03-02T15:08:44.443Z,35.50
2023-03-02T15:12:32.682Z,37.50
2023-03-02T15:16:20.940Z,37.40
2023-03-02T15:20:09.492Z,35.70
2023-03-02T15:23:48.762Z,36.10
2023-03-02T15:27:37.440Z,37.80
2023-03-02T15:31:18.757Z,32.40
2023-03-02T15:35:07.466Z,36.30
2023-03-02T15:38:42.662Z,36.60
2023-03-02T15:42:31.139Z,38.30
2023-03-02T15:46:20.582Z,40.00
2023-03-02T15:50:10.584Z,35.20
2023-03-02T15:53:59.612Z,34.80
2023-03-02T15:57:49.038Z,34.80
2023-03-02T16:01:33.811Z,34.20
2023-03-02T16:05:24.260Z,31.10
2023-03-02T16:09:16.048Z,32.80
2023-03-02T16:13:09.200Z,24.50
2023-03-02T16:16:50.517Z,35.80
2023-03-02T16:20:40.112Z,36.60
2023-03-02T16:24:24.174Z,40.50
2023-03-02T16:28:00.757Z,42.20
2023-03-02T16:31:40.215Z,40.90
2023-03-02T16:35:28.851Z,43.80
2023-03-02T16:39:20.393Z,41.50
2023-03-02T16:43:09.819Z,41.60
2023-03-02T16:47:01.514Z,38.50
2023-03-02T16:50:41.800Z,40.90
2023-03-02T16:54:37.358Z,40.10
2023-03-02T16:58:26.359Z,42.90
2023-03-02T17:02:22.137Z,42.20
2023-03-02T17:06:04.662Z,41.40
2023-03-02T17:09:54.458Z,42.60
2023-03-02T17:13:42.730Z,41.90
2023-03-02T17:17:34.541Z,41.90
2023-03-02T17:21:10.500Z,36.40
2023-03-02T17:24:58.213Z,33.40
2023-03-02T17:28:43.916Z,34.40
2023-03-02T17:32:32.893Z,35.30
2023-03-02T17:36:23.797Z,33.70
2023-03-02T17:39:40.255Z,39.60
2023-03-02T17:47:27.225Z,40.10
2023-03-02T17:50:55.890Z,42.90
2023-03-02T17:54:45.371Z,37.50
2023-03-02T17:58:44.182Z,33.80
2023-03-02T18:01:48.851Z,37.20
2023-03-02T18:05:37.352Z,40.70
2023-03-02T18:10:07.768Z,36.60
2023-03-02T18:14:36.457Z,35.80
2023-03-02T18:19:05.670Z,35.10
2023-03-02T18:23:34.119Z,38.90
2023-03-02T18:28:03.243Z,40.30
2023-03-02T18:33:22.199Z,41.50
2023-03-02T18:37:05.162Z,40.30
2023-03-02T18:41:34.438Z,36.20
2023-03-02T18:46:06.025Z,36.60
2023-03-02T18:50:34.466Z,35.90
2023-03-02T18:55:08.923Z,41.50
2023-03-02T18:59:40.261Z,37.50
2023-03-02T19:04:09.528Z,51.30
2023-03-02T19:23:22.652Z,48.70
2023-03-02T19:27:01.527Z,55.90
2023-03-02T19:30:41.760Z,42.50
2023-03-02T19:35:16.083Z,47.10
2023-03-02T19:50:45.986Z,42.50
2023-03-02T19:54:06.471Z,53.90
2023-03-02T19:57:51.448Z,51.50
2023-03-02T20:01:27.358Z,52.60
2023-03-02T20:04:50.112Z,53.70
2023-03-02T20:08:16.208Z,51.10
2023-03-02T20:11:33.037Z,49.30
2023-03-02T20:15:15.708Z,51.70
2023-03-02T20:23:34.675Z,48.10
2023-03-02T20:28:07.737Z,49.10
2023-03-02T20:36:56.777Z,50.40
2023-03-02T20:41:26.157Z,51.50
2023-03-02T20:46:02.091Z,49.70
2023-03-02T20:50:34.528Z,49.90
2023-03-02T20:55:04.608Z,47.20
2023-03-02T21:02:50.469Z,39.60
2023-03-02T21:07:21.145Z,34.00
2023-03-02T21:12:02.011Z,38.60
2023-03-02T21:16:31.697Z,44.20
2023-03-02T21:21:01.728Z,45.70
2023-03-02T21:25:32.288Z,40.80
2023-03-02T21:34:11.801Z,37.90
2023-03-02T21:38:26.403Z,37.30
2023-03-02T21:42:56.465Z,42.60
2023-03-02T21:47:27.537Z,40.30
2023-03-02T21:52:00.200Z,36.80
2023-03-02T21:56:11.302Z,39.50
2023-03-02T22:00:22.090Z,47.10
2023-03-02T22:04:52.634Z,46.60
2023-03-02T22:09:29.661Z,43.50
2023-03-02T22:14:05.974Z,48.20
2023-03-02T22:18:35.639Z,40.30
2023-03-02T22:22:45.168Z,37.20
2023-03-02T22:37:19.607Z,32.90
2023-03-02T22:41:28.148Z,39.70
2023-03-02T22:45:00.191Z,38.30
2023-03-02T22:48:51.914Z,35.50
2023-03-02T22:52:42.038Z,35.30
2023-03-02T22:56:37.789Z,33.80
2023-03-02T23:00:26.888Z,32.30
2023-03-02T23:04:12.129Z,36.30
2023-03-02T23:08:01.787Z,35.50
2023-03-02T23:11:52.379Z,37.90
2023-03-02T23:15:56.429Z,37.20
2023-03-02T23:19:44.540Z,38.20
2023-03-02T23:23:33.708Z,39.20
2023-03-02T23:27:16.811Z,37.20
2023-03-02T23:31:12.028Z,35.70
2023-03-02T23:35:01.629Z,35.60
2023-03-02T23:38:54.306Z,37.40
2023-03-02T23:42:43.710Z,35.20
2023-03-02T23:46:31.101Z,38.10
2023-03-02T23:50:21.027Z,38.00
2023-03-02T23:54:14.836Z,35.50
2023-03-02T23:58:10.406Z,36.40
